Aviation Digital Data Service (ADDS)

Output produced by METARs form (1802 UTC 16 October 2021)
found at http://www.aviationweather.gov/metar/data/
 
Forecast for: RJOB (OKAYAMA AIRPORT , JP)
Text: TAF RJOB 161705Z 1618/1800 32005KT 9999 FEW010 SCT020 BKN025
Forecast period: 1800 to 2300 UTC 16 October 2021
Forecast type: FROM: standard forecast or significant change
Winds: from the NW (320 degrees) at 6 MPH (5 knots; 2.6 m/s)
Visibility: 6 or more miles (10+ km)
Ceiling: 2500 feet AGL
Clouds: few clouds at 1000 feet AGL
scattered clouds at 2000 feet AGL
broken clouds at 2500 feet AGL
Weather: no significant weather forecast for this period
Text: BECMG 1623/1701 01012KT
Forecast period: 2300 UTC 16 October 2021 to 0000 UTC 18 October 2021
Forecast type: BECOMING: Conditions expected to become as follows by 0100 UTC 17 October 2021
Winds: from the N (10 degrees) at 14 MPH (12 knots; 6.2 m/s)
Visibility: 6 or more miles (10+ km)
Ceiling: 2500 feet AGL
Clouds: few clouds at 1000 feet AGL
scattered clouds at 2000 feet AGL
broken clouds at 2500 feet AGL
Weather: no significant weather forecast for this period